Time;durP1;ratioP1;P1;durP2;ratioP2;P2;SDS_P1;SDS_P2;PMS_P1;PMS_P2;Temp;Humidity;BMP_temperature;BMP_pressure;BME280_temperature;BME280_humidity;BME280_pressure;Samples;Min_cycle;Max_cycle;Signal;HPM_P1;HPM_P2
2022/11/29 00:05:03;;;;;;;94.90;46.13;;;;;;;-2.84;100.00;99487.95;4453263;78;21046;-81
2022/11/29 00:12:10;;;;;;;107.60;44.43;;;;;;;-2.91;100.00;99484.22;4452925;78;21014;-82
2022/11/29 00:17:21;;;;;;;93.10;42.93;;;;;;;-2.98;100.00;99479.72;4454697;78;20958;-82
2022/11/29 00:23:23;;;;;;;94.23;44.57;;;;;;;-3.02;100.00;99477.31;4460867;78;20994;-81
2022/11/29 00:29:24;;;;;;;92.37;41.10;;;;;;;-3.03;100.00;99478.92;4450677;78;21015;-81
2022/11/29 00:35:25;;;;;;;82.70;40.27;;;;;;;-3.05;100.00;99474.41;4465225;78;21006;-81
2022/11/29 00:41:27;;;;;;;88.33;41.17;;;;;;;-3.09;100.00;99471.47;4463538;78;20955;-80
2022/11/29 00:47:29;;;;;;;98.87;42.83;;;;;;;-3.10;100.00;99469.84;4450168;78;21618;-81
2022/11/29 00:53:31;;;;;;;113.07;50.93;;;;;;;-3.08;100.00;99473.05;4446933;77;21350;-81
2022/11/29 00:59:32;;;;;;;109.23;48.73;;;;;;;-3.07;100.00;99461.81;4434055;78;20967;-81
2022/11/29 01:05:34;;;;;;;89.90;43.03;;;;;;;-3.06;100.00;99470.10;4446809;78;21589;-81
2022/11/29 01:11:36;;;;;;;75.63;36.83;;;;;;;-3.00;100.00;99463.64;4433731;78;21034;-81
2022/11/29 01:17:38;;;;;;;76.60;35.07;;;;;;;-2.85;100.00;99463.02;4445441;78;21058;-82
2022/11/29 01:23:41;;;;;;;78.33;38.47;;;;;;;-2.86;100.00;99457.41;4459835;78;20988;-80
2022/11/29 01:29:42;;;;;;;81.30;39.50;;;;;;;-2.85;100.00;99457.66;4448700;78;21592;-80
2022/11/29 01:35:50;;;;;;;76.33;35.87;;;;;;;-2.91;100.00;99464.69;4444303;78;21021;-81
2022/11/29 01:41:54;;;;;;;85.37;39.87;;;;;;;-2.81;100.00;99457.39;4428585;78;21092;-80
2022/11/29 01:47:57;;;;;;;130.17;57.70;;;;;;;-2.77;100.00;99456.31;4435000;78;21023;-81
2022/11/29 01:53:58;;;;;;;139.77;62.83;;;;;;;-2.90;100.00;99444.84;4431586;80;21038;-81
2022/11/29 02:00:07;;;;;;;144.03;63.87;;;;;;;-3.06;100.00;99452.70;4433725;80;21967;-81
2022/11/29 02:06:10;;;;;;;140.10;61.20;;;;;;;-3.03;100.00;99445.45;4290547;80;21014;-81
2022/11/29 02:12:44;;;;;;;137.20;61.27;;;;;;;-3.03;100.00;99455.62;4336777;80;21509;-83
2022/11/29 02:19:22;;;;;;;137.33;57.80;;;;;;;-3.11;100.00;99451.38;4426454;79;21485;-81
2022/11/29 02:25:51;;;;;;;115.27;55.77;;;;;;;-3.05;100.00;99453.75;4427644;78;21547;-81
2022/11/29 02:32:15;;;;;;;116.73;52.97;;;;;;;-2.97;100.00;99453.71;4419694;78;21518;-82
2022/11/29 02:38:46;;;;;;;126.97;56.63;;;;;;;-3.03;100.00;99456.97;4430928;78;21492;-81
2022/11/29 02:45:20;;;;;;;150.77;61.77;;;;;;;-3.08;100.00;99456.98;4433522;80;20953;-82
2022/11/29 02:51:48;;;;;;;182.33;81.80;;;;;;;-2.93;100.00;99468.17;4426367;78;20999;-82
2022/11/29 02:58:13;;;;;;;187.87;87.27;;;;;;;-2.88;100.00;99470.28;4425090;78;20975;-82
2022/11/29 03:04:35;;;;;;;152.23;66.80;;;;;;;-2.86;100.00;99476.17;4425742;79;21577;-82
2022/11/29 03:11:04;;;;;;;85.07;41.53;;;;;;;-2.74;100.00;99471.27;4431535;79;21018;-83
2022/11/29 03:17:23;;;;;;;70.00;33.47;;;;;;;-2.74;100.00;99477.19;4428200;79;21897;-82
2022/11/29 03:23:50;;;;;;;68.53;31.87;;;;;;;-2.73;100.00;99481.45;4346802;78;20962;-83
2022/11/29 03:30:05;;;;;;;65.67;32.20;;;;;;;-2.72;100.00;99487.06;4431314;78;20962;-81
2022/11/29 03:36:30;;;;;;;56.13;24.15;;;;;;;-2.78;100.00;99488.99;4434357;78;21030;-82
2022/11/29 03:42:42;;;;;;;67.90;31.73;;;;;;;-2.75;100.00;99491.64;4431361;78;21077;-81
2022/11/29 03:48:51;;;;;;;69.40;31.20;;;;;;;-2.74;100.00;99490.03;4389565;80;21067;-81
2022/11/29 03:55:07;;;;;;;64.07;31.10;;;;;;;-2.66;100.00;99499.39;4448056;78;21049;-82
2022/11/29 04:01:32;;;;;;;65.60;30.65;;;;;;;-2.64;100.00;99494.53;4344866;79;21030;-82
2022/11/29 04:07:57;;;;;;;72.20;31.83;;;;;;;-2.63;100.00;99508.22;4361341;79;20952;-82
2022/11/29 04:14:40;;;;;;;63.43;31.57;;;;;;;-2.67;100.00;99510.64;4362617;79;21027;-81
2022/11/29 04:21:06;;;;;;;63.90;29.70;;;;;;;-2.67;100.00;99507.95;4365432;79;20968;-81
2022/11/29 04:27:48;;;;;;;67.42;30.35;;;;;;;-2.57;100.00;99518.64;4448933;78;21010;-81
2022/11/29 04:34:19;;;;;;;63.07;29.50;;;;;;;-2.59;100.00;99519.44;4356277;81;21039;-81
2022/11/29 04:41:05;;;;;;;65.93;28.47;;;;;;;-2.55;100.00;99524.50;4430520;78;21074;-81
2022/11/29 04:47:29;;;;;;;61.70;29.00;;;;;;;-2.60;100.00;99531.22;4381046;79;21014;-81
2022/11/29 04:54:13;;;;;;;64.43;28.87;;;;;;;-2.63;100.00;99536.36;4397050;79;20983;-82
2022/11/29 05:00:19;;;;;;;63.00;27.93;;;;;;;-2.69;100.00;99548.96;4405152;79;21020;-81
2022/11/29 05:06:57;;;;;;;62.30;28.77;;;;;;;-2.74;100.00;99556.23;4404779;80;21010;-82
2022/11/29 05:13:27;;;;;;;58.07;26.97;;;;;;;-2.68;100.00;99565.85;4408728;79;21172;-82
2022/11/29 05:19:46;;;;;;;58.67;28.77;;;;;;;-2.66;100.00;99565.05;4393401;79;21061;-81
2022/11/29 05:26:01;;;;;;;62.90;28.17;;;;;;;-2.63;100.00;99573.87;4402304;80;21047;-82
2022/11/29 05:32:08;;;;;;;67.50;28.00;;;;;;;-2.65;100.00;99574.16;4405988;79;21002;-81
2022/11/29 05:39:02;;;;;;;67.37;29.10;;;;;;;-2.56;100.00;99583.22;4406410;79;20966;-82
2022/11/29 05:45:21;;;;;;;68.03;28.87;;;;;;;-2.46;100.00;99588.52;4289781;80;20964;-81
2022/11/29 05:51:43;;;;;;;70.30;32.67;;;;;;;-2.43;100.00;99600.59;4396438;79;20971;-82
2022/11/29 05:58:06;;;;;;;82.97;34.03;;;;;;;-2.39;100.00;99601.09;4508615;77;20963;-81
2022/11/29 06:04:22;;;;;;;80.77;34.90;;;;;;;-2.34;100.00;99613.14;4500539;77;20987;-81
2022/11/29 06:10:31;;;;;;;96.17;38.30;;;;;;;-2.31;100.00;99614.45;4514701;77;21043;-82
2022/11/29 06:17:13;;;;;;;85.13;34.30;;;;;;;-2.22;100.00;99621.65;4472158;77;1538263;-82
2022/11/29 06:23:27;;;;;;;83.13;35.67;;;;;;;-2.25;100.00;99622.73;4349171;79;37307;-81
2022/11/29 06:29:40;;;;;;;79.10;34.17;;;;;;;-2.34;100.00;99629.76;4340161;81;21028;-82
2022/11/29 06:35:47;;;;;;;78.30;33.93;;;;;;;-2.31;100.00;99635.38;4352755;80;21551;-83
2022/11/29 06:41:49;;;;;;;84.10;35.80;;;;;;;-2.33;100.00;99637.53;4342624;80;21032;-80
2022/11/29 06:47:54;;;;;;;78.23;33.27;;;;;;;-2.24;100.00;99638.55;4326253;80;21561;-81
2022/11/29 06:54:24;;;;;;;58.57;25.77;;;;;;;-2.03;100.00;99654.00;4302753;81;21710;-82
2022/11/29 07:00:29;;;;;;;65.93;29.83;;;;;;;-2.03;100.00;99654.00;4298428;82;22590;-81
2022/11/29 07:06:33;;;;;;;63.97;29.10;;;;;;;-2.01;100.00;99659.91;4270206;82;21028;-80
2022/11/29 07:12:35;;;;;;;77.40;30.90;;;;;;;-2.15;100.00;99667.77;4177002;83;21054;-81
2022/11/29 07:19:13;;;;;;;68.10;30.00;;;;;;;-2.17;100.00;99660.52;4121119;84;21783;-81
2022/11/29 07:25:28;;;;;;;69.80;29.53;;;;;;;-2.15;100.00;99668.29;4140006;84;20989;-82
2022/11/29 07:32:19;;;;;;;77.57;31.60;;;;;;;-2.08;100.00;99674.14;4299041;82;20961;-81
2022/11/29 07:38:32;;;;;;;80.60;33.67;;;;;;;-2.09;100.00;99675.23;4287225;82;21518;-82
2022/11/29 07:44:40;;;;;;;75.83;29.97;;;;;;;-2.06;100.00;99686.75;4289803;82;22225;-83
2022/11/29 07:50:42;;;;;;;83.67;33.97;;;;;;;-1.99;100.00;99689.39;4282775;82;21880;-81
2022/11/29 07:56:44;;;;;;;83.70;32.87;;;;;;;-1.99;100.00;99689.39;4175869;83;21439;-82
2022/11/29 08:02:47;;;;;;;73.63;30.53;;;;;;;-1.94;100.00;99688.55;4278989;80;20985;-83
2022/11/29 08:08:51;;;;;;;79.00;32.67;;;;;;;-1.93;100.00;99688.31;4294004;82;21009;-82
2022/11/29 08:14:53;;;;;;;76.93;33.83;;;;;;;-1.91;100.00;99689.37;4206049;83;21052;-82
2022/11/29 08:20:54;;;;;;;89.13;32.83;;;;;;;-1.91;100.00;99701.45;4112856;84;21789;-82
2022/11/29 08:26:55;;;;;;;82.70;32.77;;;;;;;-1.81;100.00;99692.80;4164422;84;21003;-82
2022/11/29 08:32:57;;;;;;;77.63;33.13;;;;;;;-1.73;100.00;99702.95;4167607;83;21607;-83
2022/11/29 08:39:01;;;;;;;81.37;31.50;;;;;;;-1.71;100.00;99704.02;4154598;84;20949;-80
2022/11/29 08:45:05;;;;;;;78.33;32.47;;;;;;;-1.66;100.00;99710.14;4155831;84;21051;-85
2022/11/29 08:51:06;;;;;;;78.40;32.47;;;;;;;-1.61;100.00;99711.98;4138181;84;21113;-83
2022/11/29 08:57:07;;;;;;;83.03;34.17;;;;;;;-1.60;100.00;99714.95;4150647;84;21025;-83
2022/11/29 09:09:12;;;;;;;65.10;29.13;;;;;;;-1.47;100.00;99716.99;4213760;81;21039;-83
2022/11/29 09:15:14;;;;;;;79.10;34.67;;;;;;;-1.46;100.00;99713.25;4312058;80;21029;-83
2022/11/29 09:21:16;;;;;;;86.63;33.70;;;;;;;-1.66;100.00;99715.51;4306725;80;21036;-84
2022/11/29 09:27:18;;;;;;;91.83;35.50;;;;;;;-1.59;100.00;99704.46;4326693;81;21034;-84
2022/11/29 09:33:19;;;;;;;94.40;35.33;;;;;;;-1.47;100.00;99698.20;4325287;81;21866;-84
2022/11/29 09:39:22;;;;;;;96.90;37.27;;;;;;;-1.30;100.00;99709.34;4217307;83;21011;-83
2022/11/29 09:45:31;;;;;;;103.47;38.13;;;;;;;-1.27;100.00;99703.44;4222259;83;21516;-84
2022/11/29 09:52:08;;;;;;;101.53;38.23;;;;;;;-1.17;100.00;99713.28;4266346;82;21025;-84
2022/11/29 09:58:21;;;;;;;97.10;35.23;;;;;;;-1.05;100.00;99707.02;4144259;83;21496;-83
2022/11/29 10:04:28;;;;;;;81.50;32.55;;;;;;;-1.01;100.00;99706.17;4260294;81;21002;-83
2022/11/29 10:10:44;;;;;;;80.13;32.60;;;;;;;-0.93;100.00;99707.44;4336645;80;20980;-83
2022/11/29 10:17:15;;;;;;;83.47;31.97;;;;;;;-0.96;100.00;99701.29;4301511;80;20983;-85
2022/11/29 10:23:36;;;;;;;63.87;26.53;;;;;;;-0.90;100.00;99702.84;4330942;81;21008;-85
2022/11/29 10:29:37;;;;;;;61.30;24.63;;;;;;;-0.98;100.00;99700.77;4312046;81;20977;-85
2022/11/29 10:35:39;;;;;;;63.43;27.10;;;;;;;-1.07;100.00;99697.90;4310583;80;21017;-83
2022/11/29 10:41:40;;;;;;;56.17;24.23;;;;;;;-1.10;100.00;99694.44;4323036;80;20982;-84
2022/11/29 10:47:47;;;;;;;64.75;27.13;;;;;;;-0.92;100.00;99688.34;4308747;80;21176;-84
2022/11/29 10:53:50;;;;;;;68.28;29.90;;;;;;;-0.76;100.00;99687.12;4291510;80;21032;-83
2022/11/29 11:00:11;;;;;;;69.20;29.23;;;;;;;-0.53;100.00;99674.23;4325923;80;21051;-85
2022/11/29 11:06:17;;;;;;;59.90;27.48;;;;;;;-0.53;100.00;99674.23;4317387;81;21659;-84
2022/11/29 11:12:24;;;;;;;73.83;29.48;;;;;;;-0.59;100.00;99670.00;4324509;81;21087;-84
2022/11/29 11:18:29;;;;;;;81.22;32.78;;;;;;;-0.58;100.00;99670.80;4299096;80;21021;-83
2022/11/29 11:24:36;;;;;;;84.15;33.98;;;;;;;-0.59;100.00;99668.65;4296684;80;20967;-83
2022/11/29 11:30:37;;;;;;;77.62;32.15;;;;;;;-0.56;100.00;99669.95;4303036;81;21020;-84
2022/11/29 11:36:39;;;;;;;80.55;32.10;;;;;;;-0.57;100.00;99674.55;4311998;80;20977;-83
2022/11/29 11:42:41;;;;;;;71.42;29.70;;;;;;;-0.57;100.00;99679.94;4319902;80;21513;-84
2022/11/29 11:48:43;;;;;;;67.30;28.50;;;;;;;-0.59;100.00;99680.75;4320608;81;21336;-84
2022/11/29 11:54:49;;;;;;;70.55;29.37;;;;;;;-0.59;100.00;99689.35;4294599;82;20993;-84
2022/11/29 12:00:56;;;;;;;66.17;29.30;;;;;;;-0.57;100.00;99683.16;4287678;82;20989;-83
2022/11/29 12:07:06;;;;;;;64.15;28.23;;;;;;;-0.56;100.00;99676.68;4289712;82;21077;-85
2022/11/29 12:13:17;;;;;;;65.87;28.23;;;;;;;-0.56;100.00;99676.68;4270275;81;21045;-84
2022/11/29 12:19:24;;;;;;;75.57;30.32;;;;;;;-0.57;100.00;99685.84;4297986;82;21580;-84
2022/11/29 12:25:40;;;;;;;74.72;29.85;;;;;;;-0.55;100.00;99687.15;4203145;83;21036;-84
2022/11/29 12:31:54;;;;;;;65.70;28.60;;;;;;;-0.55;100.00;99687.15;4280105;80;21008;-86
2022/11/29 12:38:01;;;;;;;60.92;27.45;;;;;;;-0.62;100.00;99684.55;4280324;82;21012;-85
2022/11/29 12:44:39;;;;;;;61.00;26.55;;;;;;;-0.75;100.00;99687.93;4288946;80;21005;-84
2022/11/29 12:50:54;;;;;;;65.95;27.02;;;;;;;-0.78;100.00;99677.72;4267030;82;20974;-85
2022/11/29 12:57:24;;;;;;;66.42;28.60;;;;;;;-1.07;100.00;99675.59;4197321;81;21453;-85
2022/11/29 13:03:36;;;;;;;68.83;29.82;;;;;;;-1.07;100.00;99675.59;4241190;82;21057;-85
2022/11/29 13:10:27;;;;;;;56.13;25.15;;;;;;;-1.01;100.00;99679.30;4232541;82;21053;-85
2022/11/29 13:16:55;;;;;;;63.73;27.58;;;;;;;-1.01;100.00;99679.30;4229188;82;21011;-84
2022/11/29 13:23:04;;;;;;;64.17;29.50;;;;;;;-0.82;100.00;99712.98;4202432;81;21005;-85
2022/11/29 13:29:08;;;;;;;70.08;30.62;;;;;;;-0.82;100.00;99723.73;4250670;82;21001;-84
2022/11/29 13:35:44;;;;;;;71.25;28.00;;;;;;;-0.82;100.00;99723.73;4219868;82;21072;-86
2022/11/29 13:42:23;;;;;;;63.85;27.60;;;;;;;-0.90;100.00;99727.84;4249597;82;21079;-85
2022/11/29 13:48:33;;;;;;;59.38;26.27;;;;;;;-1.02;100.00;99723.92;4223074;83;21993;-84
2022/11/29 13:54:34;;;;;;;57.75;26.93;;;;;;;-0.97;100.00;99744.82;4146333;84;21062;-84
2022/11/29 14:00:47;;;;;;;58.08;23.77;;;;;;;-0.97;100.00;99744.82;4150986;84;21044;-85
2022/11/29 14:06:49;;;;;;;59.08;25.00;;;;;;;-1.05;100.00;99737.36;4158068;84;21052;-85
2022/11/29 14:12:55;;;;;;;53.10;25.47;;;;;;;-1.14;100.00;99743.64;4159685;84;21555;-86
2022/11/29 14:19:08;;;;;;;56.45;24.00;;;;;;;-1.20;100.00;99750.92;4161691;84;21011;-84
2022/11/29 14:25:24;;;;;;;58.80;25.27;;;;;;;-1.19;100.00;99765.95;4274070;82;21084;-84
2022/11/29 14:31:50;;;;;;;55.03;24.35;;;;;;;-1.17;100.00;99761.64;4289467;82;20973;-83
2022/11/29 14:38:29;;;;;;;56.57;26.50;;;;;;;-1.18;100.00;99769.45;4207188;83;21003;-84
2022/11/29 14:44:34;;;;;;;63.70;28.73;;;;;;;-1.16;100.00;99764.05;4281999;82;21048;-85
2022/11/29 14:50:39;;;;;;;65.83;28.38;;;;;;;-1.19;100.00;99752.52;4308994;80;21019;-84
2022/11/29 14:56:43;;;;;;;59.30;27.13;;;;;;;-1.22;100.00;99767.07;4319876;81;21356;-84
2022/11/29 15:03:13;;;;;;;62.43;27.40;;;;;;;-1.24;100.00;99766.01;4311783;80;21001;-84
2022/11/29 15:09:19;;;;;;;67.47;29.03;;;;;;;-1.22;100.00;99769.76;4313485;80;21033;-84
2022/11/29 15:15:38;;;;;;;66.75;27.02;;;;;;;-1.31;100.00;99772.22;4239567;82;21006;-86
2022/11/29 15:21:52;;;;;;;65.70;29.70;;;;;;;-1.46;100.00;99769.64;4274390;81;21148;-85
2022/11/29 15:28:02;;;;;;;54.47;21.73;;;;;;;-1.54;100.00;99784.17;4252848;82;21006;-85
2022/11/29 15:34:04;;;;;;;67.93;27.17;;;;;;;-1.58;100.00;99783.92;4262027;82;21023;-84
2022/11/29 15:40:18;;;;;;;72.90;29.40;;;;;;;-1.57;100.00;99770.22;4319442;80;21539;-85
2022/11/29 15:46:27;;;;;;;75.67;31.40;;;;;;;-1.52;100.00;99771.28;4320512;80;20996;-85
2022/11/29 15:52:36;;;;;;;77.10;31.23;;;;;;;-1.48;100.00;99777.69;4300411;80;21056;-84
2022/11/29 15:58:38;;;;;;;83.27;32.13;;;;;;;-1.45;100.00;99777.95;4279931;82;20966;-84
2022/11/29 16:04:42;;;;;;;80.37;32.73;;;;;;;-1.38;100.00;99795.10;4288995;81;20965;-84
2022/11/29 16:10:49;;;;;;;85.43;34.23;;;;;;;-1.30;100.00;99793.17;4295641;82;21044;-84
2022/11/29 16:16:53;;;;;;;80.87;34.13;;;;;;;-1.25;100.00;99793.16;4291408;82;21008;-84
2022/11/29 16:23:13;;;;;;;93.33;34.50;;;;;;;-1.24;100.00;99790.19;4287156;82;21027;-85
2022/11/29 16:29:45;;;;;;;103.23;35.87;;;;;;;-1.24;100.00;99794.22;4286087;82;20984;-86
2022/11/29 16:35:47;;;;;;;82.53;30.55;;;;;;;-1.22;100.00;99793.38;4292490;82;21577;-84
2022/11/29 16:42:22;;;;;;;73.65;29.40;;;;;;;-1.23;100.00;99805.21;4294914;80;21005;-84
2022/11/29 16:48:30;;;;;;;95.95;39.13;;;;;;;-1.21;100.00;99805.75;4294131;80;20977;-84
2022/11/29 16:54:33;;;;;;;104.23;37.93;;;;;;;-1.17;100.00;99822.09;4282268;82;21120;-84
2022/11/29 17:00:34;;;;;;;101.03;39.50;;;;;;;-1.17;100.00;99816.72;4277308;82;21534;-83
2022/11/29 17:06:37;;;;;;;90.17;35.13;;;;;;;-1.14;100.00;99822.34;4203187;83;21360;-85
2022/11/29 17:12:38;;;;;;;86.20;34.83;;;;;;;-1.05;100.00;99831.97;4279707;82;21032;-84
2022/11/29 17:18:42;;;;;;;87.27;36.03;;;;;;;-1.04;100.00;99824.98;4300426;82;20984;-84
2022/11/29 17:24:43;;;;;;;88.70;35.00;;;;;;;-0.96;100.00;99825.73;4285863;82;21025;-84
2022/11/29 17:30:45;;;;;;;85.72;34.83;;;;;;;-0.96;100.00;99825.73;4293665;82;21023;-85
2022/11/29 17:36:46;;;;;;;111.65;42.48;;;;;;;-0.92;100.00;99825.95;4292574;82;22033;-84
2022/11/29 17:42:47;;;;;;;124.30;48.52;;;;;;;-0.92;100.00;99824.08;4291755;80;22240;-84
2022/11/29 17:48:51;;;;;;;98.57;38.13;;;;;;;-0.92;100.00;99827.30;4275941;82;21091;-83
2022/11/29 17:54:52;;;;;;;86.70;33.85;;;;;;;-0.93;100.00;99841.30;4241039;82;21723;-84
2022/11/29 18:00:53;;;;;;;91.53;36.30;;;;;;;-0.91;100.00;99841.02;4304314;81;20969;-84
2022/11/29 18:06:55;;;;;;;96.67;38.05;;;;;;;-0.89;100.00;99832.92;4317911;80;21052;-84
2022/11/29 18:12:57;;;;;;;93.13;38.63;;;;;;;-0.83;100.00;99833.70;4304680;80;21036;-84
2022/11/29 18:19:06;;;;;;;85.90;34.90;;;;;;;-0.81;100.00;99830.17;4314073;81;21020;-84
2022/11/29 18:25:07;;;;;;;86.57;33.23;;;;;;;-0.81;100.00;99835.55;4327758;81;21038;-84
2022/11/29 18:31:13;;;;;;;79.77;32.30;;;;;;;-0.78;100.00;99837.67;4239610;82;21057;-85
2022/11/29 18:37:15;;;;;;;85.92;32.63;;;;;;;-0.83;100.00;99857.89;4250699;81;21025;-84
2022/11/29 18:43:19;;;;;;;82.65;33.18;;;;;;;-0.87;100.00;99848.23;4235818;81;21044;-84
2022/11/29 18:49:21;;;;;;;89.50;36.40;;;;;;;-0.88;100.00;99842.61;4235626;82;21040;-84
2022/11/29 18:55:23;;;;;;;98.52;36.88;;;;;;;-0.87;100.00;99837.48;4238271;82;21061;-83
2022/11/29 19:01:28;;;;;;;90.57;33.95;;;;;;;-0.85;100.00;99842.58;4237818;82;21008;-85
2022/11/29 19:07:36;;;;;;;89.97;33.90;;;;;;;-0.82;100.00;99848.73;4238802;82;21012;-85
2022/11/29 19:13:39;;;;;;;93.07;34.75;;;;;;;-0.85;100.00;99848.77;4233656;82;21661;-85
2022/11/29 19:19:40;;;;;;;88.82;35.08;;;;;;;-0.87;100.00;99846.08;4240261;82;21580;-86
2022/11/29 19:25:42;;;;;;;91.08;33.92;;;;;;;-0.90;100.00;99846.11;4233925;82;21038;-85
2022/11/29 19:31:43;;;;;;;95.55;35.17;;;;;;;-0.88;100.00;99851.20;4249113;81;20987;-84
2022/11/29 19:37:45;;;;;;;83.67;33.85;;;;;;;-0.93;100.00;99855.27;4306961;81;21262;-84
2022/11/29 19:43:47;;;;;;;90.57;35.35;;;;;;;-0.92;100.00;99864.92;4318254;80;21016;-84
2022/11/29 19:49:54;;;;;;;93.72;36.35;;;;;;;-0.92;100.00;99867.08;4314202;80;21615;-85
2022/11/29 19:55:57;;;;;;;92.00;37.20;;;;;;;-0.92;100.00;99861.70;4307656;81;21046;-85
2022/11/29 20:01:59;;;;;;;96.65;36.65;;;;;;;-0.90;100.00;99866.27;4315343;80;21039;-83
2022/11/29 20:08:02;;;;;;;103.17;36.58;;;;;;;-0.88;100.00;99860.61;4332243;81;21046;-84
2022/11/29 20:14:06;;;;;;;107.40;39.83;;;;;;;-0.85;100.00;99863.55;4316495;80;21016;-84
2022/11/29 20:20:11;;;;;;;114.85;41.70;;;;;;;-0.82;100.00;99865.68;4315852;81;20963;-84
2022/11/29 20:26:19;;;;;;;92.53;36.95;;;;;;;-0.80;100.00;99866.74;4309913;80;21012;-84
2022/11/29 20:32:24;;;;;;;103.38;38.42;;;;;;;-0.82;100.00;99882.34;4304960;80;22049;-84
2022/11/29 20:38:45;;;;;;;115.90;39.45;;;;;;;-0.86;100.00;99879.96;4318527;80;21779;-84
2022/11/29 20:44:56;;;;;;;122.13;41.77;;;;;;;-0.84;100.00;99877.25;4308114;80;21064;-85
2022/11/29 20:51:01;;;;;;;122.87;41.45;;;;;;;-0.81;100.00;99865.93;4310055;81;21025;-85
2022/11/29 20:57:02;;;;;;;128.47;44.05;;;;;;;-0.80;100.00;99884.22;4305901;81;21902;-83
2022/11/29 21:03:04;;;;;;;109.57;40.27;;;;;;;-0.79;100.00;99889.31;4196056;80;9999724;-84
2022/11/29 21:09:06;;;;;;;113.83;41.53;;;;;;;-0.77;100.00;99893.06;4314068;81;21036;-83
2022/11/29 21:15:10;;;;;;;133.03;44.33;;;;;;;-0.77;100.00;99896.57;4313009;81;21052;-84
2022/11/29 21:21:35;;;;;;;132.78;44.48;;;;;;;-0.75;100.00;99889.56;4314795;80;21473;-84
2022/11/29 21:27:37;;;;;;;129.42;44.30;;;;;;;-0.71;100.00;99883.34;4317271;80;20961;-83
2022/11/29 21:33:40;;;;;;;120.20;42.30;;;;;;;-0.71;100.00;99890.07;4316164;81;20997;-84
2022/11/29 21:39:41;;;;;;;127.95;43.00;;;;;;;-0.70;100.00;99886.28;4310171;80;21016;-84
2022/11/29 21:45:47;;;;;;;126.50;47.03;;;;;;;-0.70;100.00;99898.39;4308042;81;21850;-84
2022/11/29 21:51:49;;;;;;;119.55;44.65;;;;;;;-0.69;100.00;99910.73;4226504;81;21011;-84
2022/11/29 21:57:51;;;;;;;125.75;44.15;;;;;;;-0.68;100.00;99909.67;4135218;84;20990;-84
2022/11/29 22:03:53;;;;;;;133.78;46.88;;;;;;;-0.69;100.00;99893.82;4131858;84;20998;-85
2022/11/29 22:09:54;;;;;;;118.82;43.38;;;;;;;-0.70;100.00;99892.20;4133746;84;22013;-83
2022/11/29 22:16:08;;;;;;;129.72;43.73;;;;;;;-0.77;100.00;99895.22;4129043;84;21142;-85
2022/11/29 22:22:10;;;;;;;133.55;46.42;;;;;;;-0.77;100.00;99895.22;4134371;84;21035;-85
2022/11/29 22:28:11;;;;;;;135.05;45.63;;;;;;;-0.77;100.00;99893.06;4167052;84;22024;-84
2022/11/29 22:34:13;;;;;;;124.18;44.08;;;;;;;-0.79;100.00;99896.03;4171644;84;21050;-84
2022/11/29 22:40:15;;;;;;;121.53;43.85;;;;;;;-0.82;100.00;99888.53;4164569;84;21122;-83
2022/11/29 22:46:20;;;;;;;130.23;42.73;;;;;;;-0.82;100.00;99885.84;4161935;84;21055;-85
2022/11/29 22:52:21;;;;;;;118.70;41.93;;;;;;;-0.84;100.00;99892.03;4161821;83;21622;-84
2022/11/29 22:58:22;;;;;;;118.20;41.45;;;;;;;-0.85;100.00;99896.34;4222326;83;21070;-83
2022/11/29 23:04:24;;;;;;;99.97;37.58;;;;;;;-0.84;100.00;99892.03;4273513;82;20994;-84
2022/11/29 23:10:25;;;;;;;90.80;34.25;;;;;;;-0.83;100.00;99898.22;4265179;81;21057;-83
2022/11/29 23:16:28;;;;;;;95.17;33.58;;;;;;;-0.90;100.00;99903.90;4251903;82;21682;-84
2022/11/29 23:22:30;;;;;;;93.10;33.70;;;;;;;-0.90;100.00;99903.90;4271099;80;20993;-85
2022/11/29 23:28:33;;;;;;;100.45;35.90;;;;;;;-0.89;100.00;99900.12;4248148;82;21076;-84
2022/11/29 23:34:34;;;;;;;100.10;36.00;;;;;;;-0.88;100.00;99899.06;4316539;81;21058;-84
2022/11/29 23:40:35;;;;;;;96.25;34.63;;;;;;;-0.88;100.00;99895.56;4329852;81;21083;-83
2022/11/29 23:46:37;;;;;;;94.20;35.27;;;;;;;-0.88;100.00;99895.56;4311100;80;21012;-85
2022/11/29 23:52:38;;;;;;;99.17;36.07;;;;;;;-0.89;100.00;99897.44;4324033;81;21074;-84
2022/11/29 23:58:40;;;;;;;101.07;38.75;;;;;;;-0.94;100.00;99908.77;4325317;81;20987;-84
